Terminal Aerodrome Forecast
Issued by NWS

Home | Current Version | Previous Version | Graphics & Text | Print | Product List | Glossary On
Versions: 1 2 3 4 5 6 7 8 9 10 11 12 13 14 15 16 17 18
000
FTUS43 KBIS 260000 AAA
TAFDIK
TAF AMD
KDIK 260036Z 2601/2624 29009KT P6SM SCT025
     FM260800 VRB05KT P6SM SCT040 BKN090
     FM261800 17007KT P6SM BKN040=

USA.gov is the U.S. government's official web portal to all federal, state and local government web resources and services.